Time;durP1;ratioP1;P1;durP2;ratioP2;P2;SDS_P1;SDS_P2;PMS_P1;PMS_P2;Temp;Humidity;BMP_temperature;BMP_pressure;BME280_temperature;BME280_humidity;BME280_pressure;Samples;Min_cycle;Max_cycle;Signal;HPM_P1;HPM_P2
2023/07/09 00:02:20;;;;;;;13.02;5.80;;;18.30;99.90;;;;;;4993071;28;20528;-80
2023/07/09 00:04:45;;;;;;;10.73;5.55;;;18.20;99.90;;;;;;4992876;28;20045;-80
2023/07/09 00:07:16;;;;;;;11.55;6.20;;;18.20;99.90;;;;;;4993922;28;20026;-81
2023/07/09 00:09:43;;;;;;;10.02;6.13;;;18.20;99.90;;;;;;4993011;28;20117;-80
2023/07/09 00:12:14;;;;;;;9.30;5.90;;;18.20;99.90;;;;;;4994579;28;20029;-80
2023/07/09 00:14:39;;;;;;;9.52;5.60;;;18.20;99.90;;;;;;4993480;28;20029;-81
2023/07/09 00:17:10;;;;;;;12.13;5.97;;;18.10;99.90;;;;;;4993484;28;20026;-80
2023/07/09 00:19:36;;;;;;;12.82;5.53;;;18.10;99.90;;;;;;5026669;22;20054;-84
2023/07/09 00:22:12;;;;;;;11.82;6.10;;;18.10;99.90;;;;;;5000713;28;20515;-83
2023/07/09 00:24:38;;;;;;;11.15;5.93;;;18.10;99.90;;;;;;4999407;28;20042;-83
2023/07/09 00:27:08;;;;;;;10.85;6.07;;;18.00;99.90;;;;;;5000147;28;20037;-83
2023/07/09 00:29:33;;;;;;;9.60;5.18;;;18.10;99.90;;;;;;5001472;28;20517;-83
2023/07/09 00:31:59;;;;;;;11.73;6.05;;;18.00;99.90;;;;;;5001405;28;20109;-84
2023/07/09 00:34:24;;;;;;;8.73;5.32;;;18.00;99.90;;;;;;5002590;28;20168;-82
2023/07/09 00:36:50;;;;;;;10.13;5.72;;;18.00;99.90;;;;;;5001411;28;20055;-83
2023/07/09 00:39:18;;;;;;;10.85;5.95;;;17.90;99.90;;;;;;5002083;28;21419;-82
2023/07/09 00:41:46;;;;;;;10.38;6.57;;;17.90;99.90;;;;;;5000490;28;20478;-82
2023/07/09 00:44:30;;;;;;;10.57;6.10;;;17.80;99.90;;;;;;5001091;28;20461;-82
2023/07/09 00:47:01;;;;;;;10.73;6.00;;;17.80;99.90;;;;;;5001317;28;20021;-82
2023/07/09 00:49:34;;;;;;;11.32;6.03;;;17.70;99.90;;;;;;5004571;28;20038;-82
2023/07/09 00:52:03;;;;;;;9.70;6.05;;;17.70;99.90;;;;;;4987843;28;20553;-82
2023/07/09 00:54:36;;;;;;;11.00;5.95;;;17.70;99.90;;;;;;5005833;28;20516;-82
2023/07/09 00:57:06;;;;;;;10.80;5.30;;;17.70;99.90;;;;;;5006285;28;20117;-82
2023/07/09 00:59:33;;;;;;;11.85;6.18;;;17.60;99.90;;;;;;5007277;28;20458;-83
2023/07/09 01:02:00;;;;;;;13.45;5.93;;;17.60;99.90;;;;;;5006122;28;20034;-82
2023/07/09 01:04:26;;;;;;;8.73;5.60;;;17.60;99.90;;;;;;5004106;28;20124;-82
2023/07/09 01:06:54;;;;;;;10.85;6.15;;;17.60;99.90;;;;;;5006224;28;20053;-83
2023/07/09 01:09:22;;;;;;;8.68;5.60;;;17.60;99.90;;;;;;5005965;28;20068;-82
2023/07/09 01:11:47;;;;;;;8.25;5.35;;;17.50;99.90;;;;;;5005801;28;20037;-82
2023/07/09 01:14:17;;;;;;;9.55;5.43;;;17.50;99.90;;;;;;5005469;28;20022;-83
2023/07/09 01:16:49;;;;;;;11.18;5.72;;;17.50;99.90;;;;;;5002954;28;20100;-83
2023/07/09 01:19:16;;;;;;;9.48;5.80;;;17.50;99.90;;;;;;5005943;28;21457;-82
2023/07/09 01:21:42;;;;;;;9.75;5.32;;;17.40;99.90;;;;;;5006055;28;21739;-83
2023/07/09 01:24:35;;;;;;;11.27;5.90;;;17.40;99.90;;;;;;5005030;28;20107;-82
2023/07/09 01:27:02;;;;;;;12.90;6.22;;;17.30;99.90;;;;;;5004347;28;20034;-84
2023/07/09 01:29:31;;;;;;;13.88;6.72;;;17.30;99.90;;;;;;5004732;28;20525;-82
2023/07/09 01:31:57;;;;;;;11.25;5.90;;;17.30;99.90;;;;;;5006224;28;20030;-83
2023/07/09 01:34:24;;;;;;;11.73;5.85;;;17.30;99.90;;;;;;5003778;28;20064;-82
2023/07/09 01:36:51;;;;;;;11.88;6.22;;;17.30;99.90;;;;;;5003849;28;20049;-83
2023/07/09 01:39:17;;;;;;;11.10;6.07;;;17.30;99.90;;;;;;5003522;28;20045;-82
2023/07/09 01:41:42;;;;;;;13.40;5.65;;;17.20;99.90;;;;;;5004857;28;20045;-82
2023/07/09 01:44:08;;;;;;;9.55;5.03;;;17.20;99.90;;;;;;5004030;28;20038;-83
2023/07/09 01:46:34;;;;;;;9.90;5.88;;;17.20;99.90;;;;;;5003987;28;20074;-83
2023/07/09 01:49:00;;;;;;;11.07;5.95;;;17.20;99.90;;;;;;5002872;28;20061;-82
2023/07/09 01:51:28;;;;;;;10.15;5.68;;;17.10;99.90;;;;;;5004823;28;20030;-83
2023/07/09 01:53:53;;;;;;;9.20;5.80;;;17.10;99.90;;;;;;5003451;28;20478;-83
2023/07/09 01:56:19;;;;;;;10.55;5.53;;;17.10;99.90;;;;;;5004486;28;20053;-82
2023/07/09 01:58:44;;;;;;;10.45;5.75;;;17.10;99.90;;;;;;5004218;28;20088;-82
2023/07/09 02:01:10;;;;;;;10.07;5.63;;;17.10;99.90;;;;;;5004590;28;20477;-82
2023/07/09 02:03:36;;;;;;;12.15;6.00;;;17.00;99.90;;;;;;5008324;28;20069;-82
2023/07/09 02:06:09;;;;;;;11.63;6.13;;;17.00;99.90;;;;;;5007529;28;20065;-82
2023/07/09 02:08:35;;;;;;;10.23;5.80;;;17.00;99.90;;;;;;5007778;28;20121;-82
2023/07/09 02:11:01;;;;;;;11.38;6.18;;;17.00;99.90;;;;;;5007617;28;20065;-82
2023/07/09 02:13:26;;;;;;;12.15;5.60;;;17.00;99.90;;;;;;5005900;28;21310;-82
2023/07/09 02:15:52;;;;;;;19.27;6.88;;;17.00;99.90;;;;;;5006809;28;20033;-82
2023/07/09 02:18:17;;;;;;;11.52;5.70;;;17.10;99.90;;;;;;5008573;28;20025;-82
2023/07/09 02:20:46;;;;;;;10.32;5.85;;;17.00;99.90;;;;;;5008870;28;20030;-82
2023/07/09 02:23:11;;;;;;;11.25;6.03;;;17.00;99.90;;;;;;5009607;28;20038;-83
2023/07/09 02:25:37;;;;;;;12.82;5.78;;;17.10;99.90;;;;;;5008853;28;20140;-82
2023/07/09 02:28:03;;;;;;;12.77;6.10;;;17.00;99.90;;;;;;5009623;28;20029;-83
2023/07/09 02:30:28;;;;;;;12.00;6.82;;;17.10;99.90;;;;;;5008708;28;20115;-83
2023/07/09 02:32:54;;;;;;;11.43;5.95;;;17.10;99.90;;;;;;5009803;28;20038;-82
2023/07/09 02:35:20;;;;;;;8.48;5.60;;;17.10;99.90;;;;;;5007826;28;20034;-82
2023/07/09 02:37:46;;;;;;;14.43;6.25;;;17.00;99.90;;;;;;5009404;28;20029;-82
2023/07/09 02:40:13;;;;;;;9.55;6.05;;;17.00;99.90;;;;;;5009784;28;20022;-83
2023/07/09 02:42:39;;;;;;;8.98;5.57;;;17.00;99.90;;;;;;5007924;28;20053;-82
2023/07/09 02:45:05;;;;;;;10.43;5.82;;;17.10;99.90;;;;;;5007561;28;20041;-83
2023/07/09 02:47:31;;;;;;;9.43;6.10;;;17.00;99.90;;;;;;5008793;28;20059;-82
2023/07/09 02:49:56;;;;;;;7.45;5.47;;;17.00;99.90;;;;;;5008719;28;20695;-82
2023/07/09 02:52:22;;;;;;;10.38;5.45;;;17.00;99.90;;;;;;5007181;28;20502;-82
2023/07/09 02:54:47;;;;;;;15.18;6.60;;;17.00;99.90;;;;;;5005952;28;20538;-82
2023/07/09 02:57:13;;;;;;;12.52;6.40;;;17.00;99.90;;;;;;5007167;28;20034;-82
2023/07/09 02:59:39;;;;;;;9.77;6.70;;;17.00;99.90;;;;;;5007603;28;20087;-82
2023/07/09 03:02:04;;;;;;;14.88;6.40;;;17.00;99.90;;;;;;5007283;28;20061;-82
2023/07/09 03:04:31;;;;;;;11.57;6.45;;;17.00;99.90;;;;;;5007605;28;20338;-82
2023/07/09 03:06:57;;;;;;;13.10;6.18;;;17.00;99.90;;;;;;5008202;28;20044;-82
2023/07/09 03:09:23;;;;;;;12.25;6.10;;;17.00;99.90;;;;;;5009019;28;20612;-82
2023/07/09 03:11:48;;;;;;;10.18;6.10;;;17.00;99.90;;;;;;5008158;28;20026;-83
2023/07/09 03:14:15;;;;;;;11.07;6.35;;;17.00;99.90;;;;;;5009483;28;20121;-82
2023/07/09 03:16:40;;;;;;;10.35;6.25;;;16.90;99.90;;;;;;5012383;28;20422;-82
2023/07/09 03:19:06;;;;;;;10.98;6.18;;;16.90;99.90;;;;;;5008446;28;20037;-82
2023/07/09 03:21:32;;;;;;;9.70;5.80;;;17.00;99.90;;;;;;5008982;28;20041;-82
2023/07/09 03:23:58;;;;;;;19.27;6.70;;;16.90;99.90;;;;;;5006459;28;20498;-83
2023/07/09 03:26:25;;;;;;;10.55;6.07;;;16.90;99.90;;;;;;5007833;28;20107;-82
2023/07/09 03:28:51;;;;;;;12.82;6.20;;;16.90;99.90;;;;;;5007772;28;20120;-82
2023/07/09 03:31:16;;;;;;;10.30;6.40;;;16.90;99.90;;;;;;5007834;28;21200;-82
2023/07/09 03:33:42;;;;;;;11.13;5.70;;;17.00;99.90;;;;;;5007980;28;20069;-83
2023/07/09 03:36:07;;;;;;;13.25;6.43;;;16.90;99.90;;;;;;5006476;28;20034;-82
2023/07/09 03:38:33;;;;;;;8.80;5.95;;;16.90;99.90;;;;;;5006851;28;20033;-82
2023/07/09 03:40:59;;;;;;;13.50;6.55;;;16.90;99.90;;;;;;5006822;28;20439;-82
2023/07/09 03:43:24;;;;;;;9.68;6.13;;;16.90;99.90;;;;;;5006759;28;20041;-83
2023/07/09 03:45:50;;;;;;;10.32;5.68;;;16.90;99.90;;;;;;5007252;28;20041;-82
2023/07/09 03:48:18;;;;;;;10.57;6.25;;;16.90;99.90;;;;;;5006817;28;20083;-82
2023/07/09 03:50:46;;;;;;;9.00;5.45;;;16.90;99.90;;;;;;5006355;28;20029;-82
2023/07/09 03:53:13;;;;;;;13.95;6.13;;;16.90;99.90;;;;;;5007505;28;20045;-83
2023/07/09 03:55:38;;;;;;;11.30;5.97;;;16.90;99.90;;;;;;5007162;28;20542;-82
2023/07/09 03:58:04;;;;;;;9.65;5.60;;;17.00;99.90;;;;;;5007710;28;20129;-83
2023/07/09 04:00:30;;;;;;;9.07;6.00;;;17.00;99.90;;;;;;5006558;28;20038;-82
2023/07/09 04:02:56;;;;;;;9.85;5.82;;;17.00;99.90;;;;;;5004805;28;20034;-83
2023/07/09 04:05:26;;;;;;;12.20;5.50;;;17.00;99.90;;;;;;5005940;28;20038;-82
2023/07/09 04:07:52;;;;;;;11.05;5.75;;;17.00;99.90;;;;;;5004581;28;20030;-82
2023/07/09 04:10:18;;;;;;;12.80;6.18;;;16.90;99.90;;;;;;5005481;28;20022;-82
2023/07/09 04:12:44;;;;;;;9.65;5.95;;;16.90;99.90;;;;;;5005882;28;20038;-82
2023/07/09 04:15:10;;;;;;;11.77;5.90;;;16.90;99.90;;;;;;5004068;28;20128;-82
2023/07/09 04:17:35;;;;;;;11.77;5.88;;;16.90;99.90;;;;;;5007092;28;20030;-82
2023/07/09 04:20:05;;;;;;;7.57;5.75;;;16.90;99.90;;;;;;5004826;28;20073;-83
2023/07/09 04:22:31;;;;;;;9.85;5.95;;;16.90;99.90;;;;;;5002812;28;20037;-80
2023/07/09 04:24:57;;;;;;;11.57;5.50;;;16.90;99.90;;;;;;4998654;28;20565;-78
2023/07/09 04:27:27;;;;;;;11.73;5.78;;;17.00;99.90;;;;;;4998200;28;20032;-77
2023/07/09 04:29:53;;;;;;;12.35;6.22;;;17.00;99.90;;;;;;5001627;28;20779;-77
2023/07/09 04:32:19;;;;;;;12.52;5.65;;;17.10;99.90;;;;;;5000896;28;20029;-77
2023/07/09 04:34:45;;;;;;;12.00;5.90;;;17.10;99.90;;;;;;4999047;28;20887;-78
2023/07/09 04:37:11;;;;;;;10.50;5.75;;;17.20;99.90;;;;;;4997198;28;20041;-78
2023/07/09 04:39:37;;;;;;;15.13;5.72;;;17.20;99.90;;;;;;4981790;28;20534;-78
2023/07/09 04:42:03;;;;;;;10.05;5.85;;;17.30;99.90;;;;;;4998780;28;20049;-77
2023/07/09 04:44:29;;;;;;;9.18;5.68;;;17.30;99.90;;;;;;4997453;28;20409;-78
2023/07/09 04:46:54;;;;;;;9.50;5.55;;;17.30;99.90;;;;;;4996587;28;20108;-78
2023/07/09 04:49:20;;;;;;;8.63;5.30;;;17.40;99.90;;;;;;4995241;28;20168;-78
2023/07/09 04:51:46;;;;;;;13.60;6.30;;;17.50;99.90;;;;;;4997425;28;20030;-78
2023/07/09 04:54:14;;;;;;;10.60;6.03;;;17.50;99.90;;;;;;4998381;28;20088;-78
2023/07/09 04:56:44;;;;;;;8.68;5.38;;;17.60;99.90;;;;;;4999228;28;20056;-78
2023/07/09 04:59:10;;;;;;;10.02;5.50;;;17.60;99.90;;;;;;4999055;28;20124;-78
2023/07/09 05:01:35;;;;;;;10.50;5.75;;;17.70;99.90;;;;;;4998805;28;20164;-78
2023/07/09 05:04:01;;;;;;;9.48;5.43;;;17.70;99.90;;;;;;4998000;28;20513;-78
2023/07/09 05:06:26;;;;;;;11.43;5.85;;;17.80;99.90;;;;;;4999373;28;20036;-78
2023/07/09 05:08:52;;;;;;;8.70;5.78;;;17.80;99.90;;;;;;4999773;28;20072;-78
2023/07/09 05:11:17;;;;;;;10.38;5.68;;;17.90;99.90;;;;;;4999690;28;20107;-78
2023/07/09 05:13:43;;;;;;;11.60;6.00;;;18.00;99.90;;;;;;4998446;28;20088;-78
2023/07/09 05:16:09;;;;;;;11.27;5.50;;;18.10;99.90;;;;;;4998602;28;20104;-78
2023/07/09 05:18:34;;;;;;;10.52;5.50;;;18.10;99.90;;;;;;4999657;28;20115;-78
2023/07/09 05:21:00;;;;;;;10.77;5.90;;;18.30;99.90;;;;;;4998483;28;20041;-78
2023/07/09 05:23:25;;;;;;;9.38;5.35;;;18.40;99.90;;;;;;4999505;28;20022;-78
2023/07/09 05:25:58;;;;;;;9.13;5.18;;;18.50;99.90;;;;;;5000231;28;20030;-78
2023/07/09 05:28:24;;;;;;;7.38;5.00;;;18.60;99.90;;;;;;4999670;28;20061;-78
2023/07/09 05:30:50;;;;;;;9.35;5.28;;;18.80;99.90;;;;;;4999076;28;20134;-78
2023/07/09 05:33:17;;;;;;;10.27;4.78;;;18.90;99.90;;;;;;4998932;28;20029;-78
2023/07/09 05:35:42;;;;;;;8.48;5.00;;;19.10;99.90;;;;;;4999057;28;20029;-78
2023/07/09 05:38:08;;;;;;;8.73;5.50;;;19.30;99.90;;;;;;5002683;28;20034;-78
2023/07/09 05:40:34;;;;;;;8.70;4.72;;;19.40;99.90;;;;;;5003321;28;21512;-78
2023/07/09 05:43:00;;;;;;;6.95;4.60;;;19.60;99.90;;;;;;5002067;28;20043;-78
2023/07/09 05:45:25;;;;;;;7.88;4.80;;;19.80;99.90;;;;;;5002407;28;20138;-78
2023/07/09 05:47:51;;;;;;;8.77;4.60;;;20.00;99.90;;;;;;5003992;28;20065;-79
2023/07/09 05:50:17;;;;;;;11.90;4.65;;;20.10;99.90;;;;;;5005021;28;20034;-79
2023/07/09 05:52:42;;;;;;;7.82;4.72;;;20.30;99.90;;;;;;5005749;28;20018;-79
2023/07/09 05:55:08;;;;;;;8.65;5.72;;;20.40;99.90;;;;;;5005820;28;20128;-79
2023/07/09 05:57:34;;;;;;;9.65;4.97;;;20.60;99.90;;;;;;5006375;28;20030;-80
2023/07/09 05:59:59;;;;;;;7.78;5.13;;;20.70;99.90;;;;;;5005760;28;20037;-79
2023/07/09 06:02:25;;;;;;;8.73;4.57;;;20.80;99.90;;;;;;5006406;28;20129;-80
2023/07/09 06:04:50;;;;;;;11.52;5.43;;;20.90;99.90;;;;;;5004263;28;20069;-80
2023/07/09 06:07:18;;;;;;;10.57;4.97;;;21.00;99.90;;;;;;5006348;28;20022;-80
2023/07/09 06:09:45;;;;;;;7.38;4.78;;;21.20;99.90;;;;;;5006710;28;20026;-79
2023/07/09 06:12:11;;;;;;;12.45;4.97;;;21.30;99.90;;;;;;4989973;28;20393;-80
2023/07/09 06:14:37;;;;;;;6.85;4.55;;;21.50;99.90;;;;;;4988918;28;20112;-80
2023/07/09 06:17:03;;;;;;;12.52;5.38;;;21.60;99.90;;;;;;5005140;28;20485;-77
2023/07/09 06:19:28;;;;;;;9.00;4.50;;;21.80;99.90;;;;;;5002707;28;20102;-78
2023/07/09 06:21:55;;;;;;;7.55;4.60;;;22.00;99.90;;;;;;5002425;28;20056;-78
2023/07/09 06:24:21;;;;;;;7.18;4.50;;;22.10;99.90;;;;;;5001931;28;20107;-78
2023/07/09 06:26:47;;;;;;;7.72;4.65;;;22.30;99.90;;;;;;5038211;22;20057;-85
2023/07/09 06:29:12;;;;;;;8.70;4.85;;;22.50;99.90;;;;;;5019540;28;20033;-87
2023/07/09 06:31:40;;;;;;;6.68;4.25;;;22.70;99.90;;;;;;5019519;28;20025;-89
2023/07/09 06:34:07;;;;;;;9.10;4.38;;;22.80;99.90;;;;;;5011095;28;20030;-88
2023/07/09 06:36:33;;;;;;;7.78;3.85;;;22.90;99.90;;;;;;5004252;28;20101;-87
2023/07/09 06:38:58;;;;;;;11.55;4.45;;;23.00;99.90;;;;;;5004355;28;20034;-84
2023/07/09 06:41:24;;;;;;;7.32;4.00;;;23.20;99.90;;;;;;5002418;28;20109;-86
2023/07/09 06:43:50;;;;;;;6.32;3.85;;;23.40;99.90;;;;;;5002696;28;20053;-82
2023/07/09 06:46:18;;;;;;;8.30;4.15;;;23.50;99.90;;;;;;5002247;28;20065;-84
2023/07/09 06:48:44;;;;;;;6.00;4.05;;;23.70;99.90;;;;;;5001638;28;20152;-81
2023/07/09 06:51:09;;;;;;;8.00;3.97;;;23.80;99.90;;;;;;5000384;28;20120;-82
2023/07/09 06:53:36;;;;;;;7.28;4.43;;;24.00;99.90;;;;;;5002089;28;20520;-83
2023/07/09 06:56:01;;;;;;;10.15;4.43;;;24.20;99.90;;;;;;5002409;28;21350;-82
2023/07/09 06:58:31;;;;;;;7.20;3.63;;;24.30;99.90;;;;;;5002459;28;20049;-77
2023/07/09 07:00:56;;;;;;;9.60;4.20;;;24.50;99.90;;;;;;4999407;28;20062;-83
2023/07/09 07:03:23;;;;;;;7.15;4.03;;;24.60;99.90;;;;;;4997123;28;20745;-81
2023/07/09 07:05:50;;;;;;;7.72;4.15;;;24.70;99.90;;;;;;5000160;28;20063;-85
2023/07/09 07:08:18;;;;;;;9.43;4.30;;;24.70;99.90;;;;;;5001876;28;20026;-81
2023/07/09 07:10:44;;;;;;;5.47;3.90;;;24.80;99.90;;;;;;5001293;28;20213;-83
2023/07/09 07:13:10;;;;;;;7.88;4.00;;;24.90;99.90;;;;;;4999864;28;20089;-83
2023/07/09 07:15:38;;;;;;;9.20;4.97;;;24.90;99.90;;;;;;4997843;28;20026;-81
2023/07/09 07:18:04;;;;;;;8.68;4.28;;;24.90;99.90;;;;;;4996608;28;20066;-80
2023/07/09 07:20:30;;;;;;;9.75;4.40;;;25.10;99.90;;;;;;4999212;28;20030;-82
2023/07/09 07:22:56;;;;;;;6.93;3.88;;;25.10;99.90;;;;;;5000655;28;20124;-80
2023/07/09 07:25:24;;;;;;;8.75;4.03;;;25.10;99.90;;;;;;4999852;28;20049;-84
2023/07/09 07:27:49;;;;;;;6.35;3.58;;;25.10;99.90;;;;;;5001024;28;20037;-83
2023/07/09 07:30:16;;;;;;;9.35;4.72;;;25.20;99.90;;;;;;5001946;28;20675;-83
2023/07/09 07:32:47;;;;;;;8.02;3.30;;;25.30;99.90;;;;;;5001897;28;20380;-82
2023/07/09 07:35:13;;;;;;;7.38;3.22;;;25.30;99.90;;;;;;5000909;28;20029;-83
2023/07/09 07:37:40;;;;;;;5.88;3.58;;;25.50;99.90;;;;;;5003356;28;20394;-81
2023/07/09 07:40:06;;;;;;;8.88;4.07;;;25.50;99.90;;;;;;5008754;28;20046;-83
2023/07/09 07:42:32;;;;;;;9.95;3.65;;;25.50;99.90;;;;;;5006183;28;20030;-84
2023/07/09 07:44:58;;;;;;;8.75;4.50;;;25.60;99.90;;;;;;5006076;28;20524;-84
2023/07/09 07:47:23;;;;;;;9.70;3.80;;;25.60;99.90;;;;;;5011316;28;20025;-83
2023/07/09 07:49:49;;;;;;;8.13;4.18;;;25.60;99.90;;;;;;5006659;28;20645;-83
2023/07/09 07:52:14;;;;;;;6.13;3.45;;;25.60;99.90;;;;;;5007460;28;20026;-80
2023/07/09 07:54:40;;;;;;;6.45;3.15;;;25.60;99.90;;;;;;5003746;28;20040;-82
2023/07/09 07:57:06;;;;;;;6.85;3.45;;;25.70;99.90;;;;;;5003805;28;20103;-81
2023/07/09 07:59:34;;;;;;;7.60;3.40;;;25.70;99.90;;;;;;5002727;28;20123;-85
2023/07/09 08:02:00;;;;;;;6.15;3.30;;;25.80;99.90;;;;;;5002182;28;20021;-86
2023/07/09 08:04:26;;;;;;;5.97;3.10;;;25.90;99.90;;;;;;5001194;28;20068;-85
2023/07/09 08:06:52;;;;;;;6.63;3.50;;;25.90;99.90;;;;;;4999485;28;20018;-88
2023/07/09 08:09:17;;;;;;;7.60;3.67;;;26.00;99.90;;;;;;4999327;28;20025;-86
2023/07/09 08:11:43;;;;;;;8.00;3.15;;;26.10;99.90;;;;;;4996498;28;20109;-86
2023/07/09 08:14:10;;;;;;;6.30;3.55;;;26.20;99.90;;;;;;4999768;28;20036;-88
2023/07/09 08:16:35;;;;;;;8.63;3.90;;;26.30;99.90;;;;;;4999082;28;20084;-85
2023/07/09 08:19:01;;;;;;;7.60;3.97;;;26.40;99.90;;;;;;4998659;28;20022;-88
2023/07/09 08:21:27;;;;;;;7.03;3.53;;;26.50;99.90;;;;;;4994707;28;20026;-84
2023/07/09 08:23:52;;;;;;;8.68;3.55;;;26.60;99.90;;;;;;4995284;28;20086;-83
2023/07/09 08:26:18;;;;;;;8.05;3.53;;;26.70;99.90;;;;;;4996255;28;20030;-86
2023/07/09 08:28:43;;;;;;;8.23;3.80;;;26.70;99.90;;;;;;5001076;28;20037;-84
2023/07/09 08:31:09;;;;;;;7.13;3.50;;;26.80;99.90;;;;;;5000926;28;20148;-84
2023/07/09 08:33:35;;;;;;;7.82;4.20;;;26.90;99.90;;;;;;5000471;28;20026;-84
2023/07/09 08:36:00;;;;;;;6.65;3.90;;;27.00;99.90;;;;;;5002250;28;21114;-87
2023/07/09 08:38:26;;;;;;;10.65;3.92;;;27.00;99.90;;;;;;5003658;28;20037;-86
2023/07/09 08:41:36;;;;;;;8.30;3.33;;;27.10;99.90;;;;;;4999572;28;20030;-87
2023/07/09 08:44:26;;;;;;;7.03;3.70;;;27.20;99.90;;;;;;4991616;28;20042;-85
2023/07/09 08:47:05;;;;;;;6.80;3.60;;;27.30;99.90;;;;;;4999875;28;20062;-85
2023/07/09 08:49:57;;;;;;;5.35;3.58;;;27.40;99.90;;;;;;5000126;28;20030;-84
2023/07/09 08:52:37;;;;;;;8.30;3.90;;;27.50;99.90;;;;;;5000183;28;20034;-84
2023/07/09 08:55:14;;;;;;;6.55;4.03;;;27.50;99.90;;;;;;4999028;28;20026;-85
2023/07/09 08:57:50;;;;;;;5.82;3.90;;;27.60;99.90;;;;;;5000328;28;20026;-88
2023/07/09 09:00:33;;;;;;;6.18;3.83;;;27.70;99.90;;;;;;5000536;28;20036;-86
2023/07/09 09:03:14;;;;;;;10.57;3.92;;;27.80;99.90;;;;;;5001654;28;20026;-84
2023/07/09 09:05:44;;;;;;;6.10;3.75;;;27.90;99.90;;;;;;4999521;28;20030;-86
2023/07/09 09:08:18;;;;;;;8.40;4.50;;;28.00;99.90;;;;;;5001636;28;20057;-86
2023/07/09 09:10:52;;;;;;;7.28;3.80;;;28.00;99.90;;;;;;5004626;28;20040;-87
2023/07/09 09:13:22;;;;;;;7.57;4.53;;;28.20;99.90;;;;;;4982839;28;20080;-87
2023/07/09 09:15:49;;;;;;;7.45;3.92;;;28.20;99.90;;;;;;5000153;28;20084;-85
2023/07/09 09:18:19;;;;;;;8.25;3.88;;;28.30;99.90;;;;;;5002259;28;20106;-86
2023/07/09 09:20:48;;;;;;;8.50;3.90;;;28.30;99.90;;;;;;5002541;28;20034;-85
2023/07/09 09:23:17;;;;;;;8.88;4.03;;;28.50;99.90;;;;;;5005075;28;20018;-85
2023/07/09 09:25:51;;;;;;;6.95;4.10;;;28.60;99.90;;;;;;4998744;28;20038;-84
2023/07/09 09:28:17;;;;;;;6.82;3.88;;;28.70;99.90;;;;;;5002940;28;20030;-87
2023/07/09 09:30:42;;;;;;;6.22;3.65;;;28.80;99.90;;;;;;4997135;28;20545;-87
2023/07/09 09:33:10;;;;;;;7.13;4.07;;;28.90;99.90;;;;;;5000412;28;20022;-85
2023/07/09 09:35:38;;;;;;;7.15;3.70;;;29.00;99.90;;;;;;4998256;28;20037;-85
2023/07/09 09:38:11;;;;;;;15.05;4.68;;;29.20;99.90;;;;;;4998995;28;20058;-85
2023/07/09 09:40:37;;;;;;;8.20;3.90;;;29.30;99.90;;;;;;4999934;28;20025;-85
2023/07/09 09:43:19;;;;;;;9.10;3.58;;;29.50;99.90;;;;;;4996837;28;20282;-86
2023/07/09 09:45:47;;;;;;;8.50;4.20;;;29.80;99.90;;;;;;5000722;28;20039;-86
2023/07/09 09:48:32;;;;;;;6.15;3.88;;;30.00;99.50;;;;;;5001140;28;20505;-86
2023/07/09 09:51:01;;;;;;;7.15;3.97;;;30.40;98.80;;;;;;5001556;28;20045;-86
2023/07/09 09:53:28;;;;;;;6.10;4.22;;;30.80;99.90;;;;;;4995569;28;20034;-87
2023/07/09 09:55:56;;;;;;;8.23;4.18;;;31.30;99.90;;;;;;4994906;28;20041;-86
2023/07/09 09:58:28;;;;;;;7.10;3.75;;;31.50;99.90;;;;;;4998395;28;20029;-86
2023/07/09 10:00:56;;;;;;;5.55;3.95;;;31.70;99.20;;;;;;4995507;28;20057;-85
2023/07/09 10:03:36;;;;;;;8.95;4.15;;;32.00;96.60;;;;;;4996961;28;20120;-85
2023/07/09 10:06:28;;;;;;;7.45;3.53;;;32.10;97.20;;;;;;4994431;28;20568;-86
2023/07/09 10:09:02;;;;;;;8.32;3.92;;;32.40;94.90;;;;;;4972666;28;20062;-86
2023/07/09 10:11:32;;;;;;;6.10;3.60;;;32.50;93.40;;;;;;4996002;28;20087;-88
2023/07/09 10:14:19;;;;;;;5.65;3.75;;;32.60;93.30;;;;;;4994627;28;20256;-86
2023/07/09 10:16:48;;;;;;;4.60;3.38;;;32.70;93.90;;;;;;4994772;28;20041;-88
2023/07/09 10:19:43;;;;;;;7.65;4.22;;;32.80;94.20;;;;;;4996467;28;20030;-86
2023/07/09 10:22:43;;;;;;;6.90;3.75;;;32.90;92.90;;;;;;4995597;28;20037;-87
2023/07/09 10:25:27;;;;;;;6.78;3.53;;;33.20;91.70;;;;;;4995490;28;21081;-87
2023/07/09 10:28:17;;;;;;;5.70;3.77;;;33.30;93.00;;;;;;4998138;28;20053;-86
2023/07/09 10:31:08;;;;;;;10.00;3.80;;;33.30;91.60;;;;;;4997986;28;21052;-86
2023/07/09 10:34:11;;;;;;;7.47;4.20;;;33.30;91.90;;;;;;4995743;28;20194;-86
2023/07/09 10:36:58;;;;;;;7.38;4.20;;;33.30;91.50;;;;;;4995520;28;20486;-86
2023/07/09 10:39:28;;;;;;;8.23;3.92;;;33.10;92.70;;;;;;4997697;28;20021;-86
2023/07/09 10:41:59;;;;;;;8.98;3.53;;;33.20;89.40;;;;;;4997493;28;20042;-87
2023/07/09 10:44:42;;;;;;;7.07;3.78;;;33.30;90.00;;;;;;4995756;28;20084;-87
2023/07/09 10:47:28;;;;;;;6.07;3.58;;;33.50;90.50;;;;;;4997504;28;20446;-86
2023/07/09 10:49:55;;;;;;;6.95;3.63;;;33.70;91.00;;;;;;4998358;28;20030;-85
2023/07/09 10:52:27;;;;;;;6.75;3.72;;;33.90;89.30;;;;;;4999573;28;20033;-86
2023/07/09 10:55:22;;;;;;;9.18;3.40;;;34.00;89.20;;;;;;4999174;28;20148;-85
2023/07/09 10:58:02;;;;;;;7.55;4.10;;;34.00;90.60;;;;;;4997285;28;20034;-74
2023/07/09 11:00:39;;;;;;;6.38;3.75;;;34.10;86.80;;;;;;4996332;28;20146;-75
2023/07/09 11:03:18;;;;;;;8.48;4.05;;;34.10;83.90;;;;;;4997230;28;20048;-74
2023/07/09 11:05:45;;;;;;;8.45;3.80;;;34.00;84.70;;;;;;4997033;28;20156;-74
2023/07/09 11:08:18;;;;;;;11.25;3.95;;;34.10;85.10;;;;;;4997982;28;20022;-75
2023/07/09 11:10:53;;;;;;;16.55;4.65;;;34.20;81.60;;;;;;4996206;28;20076;-75
2023/07/09 11:13:43;;;;;;;5.43;3.58;;;34.30;82.40;;;;;;4994057;28;20042;-77
2023/07/09 11:16:15;;;;;;;9.30;4.20;;;34.20;83.30;;;;;;4997399;28;20080;-76
2023/07/09 11:18:40;;;;;;;6.15;3.53;;;34.40;84.20;;;;;;4997138;28;20019;-78
2023/07/09 11:21:15;;;;;;;8.57;4.10;;;34.40;79.00;;;;;;4996546;28;20030;-75
2023/07/09 11:23:55;;;;;;;7.82;3.97;;;34.40;80.90;;;;;;4996567;28;20021;-77
2023/07/09 11:26:25;;;;;;;5.57;3.70;;;34.40;81.10;;;;;;4996322;28;20544;-75
2023/07/09 11:29:09;;;;;;;5.93;3.33;;;34.50;77.60;;;;;;4998176;28;20482;-76
2023/07/09 11:31:35;;;;;;;6.68;3.60;;;34.30;76.00;;;;;;4996202;28;20050;-76
2023/07/09 11:34:15;;;;;;;6.25;3.53;;;34.40;78.10;;;;;;4994352;28;20065;-87
2023/07/09 11:36:57;;;;;;;5.82;3.72;;;34.60;77.10;;;;;;4988682;28;20038;-88
2023/07/09 11:39:51;;;;;;;7.30;3.92;;;35.00;73.70;;;;;;4992276;28;20026;-87
2023/07/09 11:42:34;;;;;;;8.37;4.50;;;34.90;75.50;;;;;;4994361;28;20058;-87
2023/07/09 11:45:11;;;;;;;8.93;3.70;;;34.90;73.60;;;;;;5002369;28;20046;-86
2023/07/09 11:47:43;;;;;;;7.38;3.55;;;34.50;71.00;;;;;;5002323;28;20030;-87
2023/07/09 11:50:28;;;;;;;9.18;3.65;;;34.10;72.60;;;;;;5002045;28;20119;-88
2023/07/09 11:53:23;;;;;;;7.53;3.85;;;34.10;77.20;;;;;;4999835;28;20069;-87
2023/07/09 11:55:49;;;;;;;;;;;34.40;78.60;;;;;;4974061;28;20042;-88
2023/07/09 11:58:17;;;;;;;6.55;3.88;;;34.70;78.30;;;;;;4997987;28;19971;-88
2023/07/09 12:00:49;;;;;;;6.88;3.45;;;34.90;76.20;;;;;;4994446;28;20036;-88
2023/07/09 12:03:22;;;;;;;5.97;3.33;;;35.40;74.60;;;;;;4993637;28;20121;-88
2023/07/09 12:05:59;;;;;;;10.75;3.65;;;35.60;75.10;;;;;;4993062;28;20670;-87
2023/07/09 12:08:35;;;;;;;6.53;3.60;;;35.60;72.70;;;;;;4996568;28;20041;-87
2023/07/09 12:11:01;;;;;;;7.57;4.18;;;35.90;71.60;;;;;;4994280;28;20029;-87
2023/07/09 12:13:26;;;;;;;4.78;3.13;;;36.10;74.30;;;;;;4994829;28;20828;-88
2023/07/09 12:15:52;;;;;;;6.88;3.90;;;36.30;74.00;;;;;;4995528;28;20042;-87
2023/07/09 12:18:18;;;;;;;6.93;3.67;;;36.40;71.00;;;;;;4996195;28;20036;-87
2023/07/09 12:20:52;;;;;;;5.88;3.50;;;36.60;70.50;;;;;;4994774;28;20034;-87
2023/07/09 12:23:29;;;;;;;9.05;4.43;;;36.70;69.10;;;;;;4997615;28;20041;-85
2023/07/09 12:25:55;;;;;;;6.85;3.78;;;36.50;68.40;;;;;;4996910;28;20050;-87
2023/07/09 12:28:23;;;;;;;8.85;3.88;;;36.30;69.40;;;;;;5096470;23;20555;-88
2023/07/09 12:30:50;;;;;;;8.15;3.80;;;36.20;68.20;;;;;;4998648;28;21425;-85
2023/07/09 12:33:17;;;;;;;9.52;3.70;;;36.00;68.50;;;;;;4995681;28;20057;-86
2023/07/09 12:35:44;;;;;;;7.55;4.03;;;35.70;70.20;;;;;;4982296;28;20650;-86
2023/07/09 12:38:20;;;;;;;7.35;3.50;;;35.90;67.20;;;;;;4981653;28;20176;-86
2023/07/09 12:40:50;;;;;;;8.02;3.78;;;35.80;68.00;;;;;;4982076;28;20037;-85
2023/07/09 12:43:25;;;;;;;6.95;3.72;;;36.00;68.80;;;;;;4981232;28;20052;-85
2023/07/09 12:45:52;;;;;;;9.38;3.85;;;35.80;66.80;;;;;;4980733;28;20046;-84
2023/07/09 12:48:25;;;;;;;6.60;3.78;;;35.90;70.00;;;;;;4981327;28;20103;-83
2023/07/09 12:50:51;;;;;;;8.55;3.85;;;36.00;67.60;;;;;;4983778;28;20048;-83
2023/07/09 12:53:21;;;;;;;6.13;3.92;;;36.10;68.60;;;;;;4981998;28;20058;-84
2023/07/09 12:55:50;;;;;;;7.97;3.40;;;36.30;66.60;;;;;;4981418;28;20034;-85